Chiado — CSKX — position and weather

sailwx.info

Track history (hours):
 
Tides and Currents Weather Stations Pressure Air Temp Water Temp Dewpoint Dewpoint Depression Visibility Wind Speed Wind Dir Waves Ship Positions

Chiado

Last reported at 2017-Oct-19 05:30 UTC. Time now 2017-Oct-19 05:48 UTC.
Position N 38°39' W 009°06'.

Length 45 m; draft 24.8 m.

Type: Passenger vessel. MMSI: 263700010.

Date/timePositionNaut miles runAvg speedWind from/ knotsBaromVisibWave heightAir tempDewpointWater temp
2017-Oct-19 05:30N 38°39' W 009°06'0 0.1
2017-Oct-19 04:58N 38°39' W 009°06'0 0.0
2017-Oct-18 19:21N 38°39' W 009°06'411.1
2017-Oct-18 18:59N 38°42' W 009°09'4 8.5
2017-Oct-18 18:30N 38°39' W 009°06'4 7.7
2017-Oct-18 17:58N 38°42' W 009°09'3 5.4
2017-Oct-18 17:30N 38°40' W 009°07'1 1.2
2017-Oct-18 17:00N 38°40' W 009°06'3 6.2
2017-Oct-18 16:31N 38°42' W 009°09'3 5.1
2017-Oct-18 15:58N 38°40' W 009°07'1 2.4
2017-Oct-18 15:30N 38°41' W 009°08'1 2.8
2017-Oct-18 15:00N 38°42' W 009°09'4 3.9
2017-Oct-18 14:00N 38°39' W 009°06'4 8.2
2017-Oct-18 13:30N 38°42' W 009°09'4 8.2
2017-Oct-18 13:00N 38°39' W 009°06'0 0.0
2017-Oct-18 12:30N 38°39' W 009°06'4 8.1
2017-Oct-18 12:00N 38°42' W 009°09'4 8.2
2017-Oct-18 11:30N 38°39' W 009°06'0 0.0
2017-Oct-18 10:59N 38°39' W 009°06'4 8.5
2017-Oct-18 10:30N 38°42' W 009°09'1 2.3
2017-Oct-18 10:00N 38°41' W 009°09'0 0.0
2017-Oct-18 09:23N 38°41' W 009°09'1 3.0
2017-Oct-18 09:00N 38°42' W 009°09'3 5.2
2017-Oct-18 08:30N 38°40' W 009°07'1 1.9
2017-Oct-18 08:00N 38°40' W 009°06'3 6.9
2017-Oct-18 07:30N 38°42' W 009°09'2 4.6
2017-Oct-18 07:00N 38°40' W 009°07'1 2.3
2017-Oct-18 06:30N 38°40' W 009°06'3 6.8
2017-Oct-18 06:00N 38°42' W 009°09'4 8.3
2017-Oct-18 05:30N 38°39' W 009°06'0 0.1
2017-Oct-18 04:57N 38°39' W 009°06'0 0.0
2017-Oct-18 04:30N 38°39' W 009°06'0 0.0
2017-Oct-17 19:26N 38°39' W 009°06'4 6.5
2017-Oct-17 18:48N 38°42' W 009°09'412.1
2017-Oct-17 18:28N 38°39' W 009°06'4 8.2
2017-Oct-17 17:58N 38°42' W 009°09'3 6.1
2017-Oct-17 17:29N 38°40' W 009°07'0 0.7
2017-Oct-17 17:00N 38°40' W 009°07'3 4.8
2017-Oct-17 16:27N 38°42' W 009°09'3 7.0
2017-Oct-17 16:00N 38°40' W 009°06'2 3.7
2017-Oct-17 15:31N 38°41' W 009°08'0 0.8
2017-Oct-17 15:00N 38°41' W 009°08'3 6.2
2017-Oct-17 14:30N 38°39' W 009°06'0 0.0
2017-Oct-17 14:00N 38°39' W 009°06'4 7.6
2017-Oct-17 13:28N 38°42' W 009°09'4 8.8
2017-Oct-17 13:00N 38°39' W 009°06'0 0.0
2017-Oct-17 12:30N 38°39' W 009°06'4 7.7
2017-Oct-17 11:59N 38°42' W 009°09'4 8.6
2017-Oct-17 11:30N 38°39' W 009°06'0 0.0
2017-Oct-17 11:00N 38°39' W 009°06'4 8.2
2017-Oct-17 10:30N 38°42' W 009°09'4 8.2
2017-Oct-17 10:00N 38°39' W 009°06'0 0.0
2017-Oct-17 09:30N 38°39' W 009°06'4 8.3
2017-Oct-17 09:00N 38°42' W 009°09'2 4.9
2017-Oct-17 08:30N 38°40' W 009°07'1 2.3
2017-Oct-17 08:00N 38°40' W 009°06'3 6.7
2017-Oct-17 07:30N 38°42' W 009°09'2 4.9
2017-Oct-17 07:00N 38°40' W 009°07'1 2.0
2017-Oct-17 06:30N 38°40' W 009°06'3 6.6
2017-Oct-17 06:00N 38°42' W 009°09'4 8.3
2017-Oct-17 05:30N 38°39' W 009°06'0 0.1
2017-Oct-17 04:59N 38°39' W 009°06'0 0.0
2017-Oct-17 04:30N 38°39' W 009°06'0 0.0
2017-Oct-16 19:28N 38°39' W 009°06'4 9.0
2017-Oct-16 19:01N 38°42' W 009°09'4 8.1
2017-Oct-16 18:30N 38°39' W 009°06'4 8.3
2017-Oct-16 18:00N 38°42' W 009°09'3 4.8
2017-Oct-16 17:28N 38°40' W 009°07'0 0.5
2017-Oct-16 17:00N 38°40' W 009°07'3 5.3
2017-Oct-16 16:29N 38°42' W 009°09'3 5.4
2017-Oct-16 15:58N 38°40' W 009°07'1 1.3
2017-Oct-16 15:30N 38°40' W 009°07'2 4.0
2017-Oct-16 14:57N 38°42' W 009°09'1 0.2
2017-Oct-16 09:11N 38°41' W 009°09'1 5.2
2017-Oct-16 09:00N 38°42' W 009°08'510.3
2017-Oct-16 08:28N 38°42' W 009°01'511.6
2017-Oct-16 08:00N 38°42' W 009°08'611.7
2017-Oct-16 07:30N 38°42' W 009°00'612.5
2017-Oct-16 06:59N 38°42' W 009°09'612.9
2017-Oct-16 06:29N 38°42' W 009°00'  
2017-Oct-13 19:02N 38°42' W 009°00'0 0.0
2017-Oct-13 19:00N 38°42' W 009°00'612.9
2017-Oct-13 18:30N 38°42' W 009°09'612.9
2017-Oct-13 18:00N 38°42' W 009°00'613.0
2017-Oct-13 17:31N 38°42' W 009°09'612.8
2017-Oct-13 17:00N 38°42' W 009°00'612.8
2017-Oct-13 16:30N 38°42' W 009°09'613.2
2017-Oct-13 16:00N 38°42' W 009°00'612.3
2017-Oct-13 15:29N 38°42' W 009°09'613.5
2017-Oct-13 15:00N 38°42' W 009°00'612.9
2017-Oct-13 14:30N 38°42' W 009°09'612.9
2017-Oct-13 14:00N 38°42' W 009°00'0 0.2
2017-Oct-13 13:30N 38°42' W 009°01'611.8
2017-Oct-13 12:57N 38°42' W 009°09'614.0
2017-Oct-13 12:29N 38°42' W 009°00'0 0.0
2017-Oct-13 12:00N 38°42' W 009°00'613.0
2017-Oct-13 11:30N 38°42' W 009°09'612.7
2017-Oct-13 11:00N 38°42' W 009°00'0 0.0
2017-Oct-13 10:30N 38°42' W 009°00'610.7
2017-Oct-13 09:54N 38°42' W 009°09'1 2.8
2017-Oct-13 09:29N 38°41' W 009°09'1 2.3
2017-Oct-13 09:00N 38°42' W 009°08'5 9.1
2017-Oct-13 08:25N 38°41' W 009°02'511.8
2017-Oct-13 07:59N 38°42' W 009°08'5 8.7
2017-Oct-13 07:23N 38°41' W 009°02'512.5
2017-Oct-13 06:58N 38°42' W 009°08'6 0.5
2017-Oct-12 19:06N 38°42' W 009°00'0 0.4
2017-Oct-12 19:00N 38°42' W 009°00'613.1
2017-Oct-12 18:30N 38°42' W 009°09'612.9
2017-Oct-12 18:00N 38°42' W 009°00'613.1
2017-Oct-12 17:30N 38°42' W 009°09'612.8
2017-Oct-12 17:00N 38°42' W 009°00'612.4
2017-Oct-12 16:29N 38°42' W 009°09'612.9
2017-Oct-12 15:59N 38°42' W 009°00'613.7
2017-Oct-12 15:30N 38°42' W 009°09'612.8
2017-Oct-12 15:00N 38°42' W 009°00'612.6
2017-Oct-12 14:29N 38°42' W 009°09'612.3
2017-Oct-12 13:58N 38°42' W 009°00'0 0.0
2017-Oct-12 13:30N 38°42' W 009°00'612.6
2017-Oct-12 12:59N 38°42' W 009°09'613.6
2017-Oct-12 12:30N 38°42' W 009°00'1 1.9
2017-Oct-12 11:54N 38°41' W 009°02'612.6
2017-Oct-12 11:28N 38°42' W 009°09'613.8
2017-Oct-12 11:00N 38°42' W 009°00'0 0.0
2017-Oct-12 10:30N 38°42' W 009°00'610.5
2017-Oct-12 09:54N 38°42' W 009°09'0 0.0
2017-Oct-12 09:23N 38°42' W 009°09'1 2.9
2017-Oct-12 08:58N 38°41' W 009°09'1 2.5
2017-Oct-12 08:30N 38°42' W 009°09'612.9
2017-Oct-12 08:00N 38°42' W 009°00'613.0
2017-Oct-12 07:30N 38°42' W 009°09'612.4
2017-Oct-12 06:59N 38°42' W 009°00'612.8
2017-Oct-12 06:29N 38°42' W 009°09'612.6
2017-Oct-12 05:59N 38°42' W 009°00'613.6
2017-Oct-12 05:30N 38°42' W 009°09'612.9
2017-Oct-12 05:00N 38°42' W 009°00'0 0.0
2017-Oct-12 04:30N 38°42' W 009°00'0 0.0
2017-Oct-11 22:57N 38°42' W 009°00'5 8.9
2017-Oct-11 22:26N 38°41' W 009°06'2 5.5
2017-Oct-11 22:00N 38°42' W 009°09'612.5
2017-Oct-11 21:30N 38°42' W 009°01'612.9
2017-Oct-11 21:00N 38°42' W 009°09'612.9
2017-Oct-11 20:30N 38°42' W 009°00'612.9
2017-Oct-11 20:01N 38°42' W 009°09'612.4
2017-Oct-11 19:30N 38°42' W 009°01'612.3
2017-Oct-11 19:00N 38°42' W 009°09'611.3
2017-Oct-11 18:28N 38°42' W 009°01'613.2
2017-Oct-11 18:01N 38°42' W 009°09'612.6
2017-Oct-11 17:30N 38°42' W 009°00'613.1
2017-Oct-11 17:00N 38°42' W 009°09'6 0.4
2017-Oct-10 22:48N 38°42' W 009°00'311.5
2017-Oct-10 22:30N 38°41' W 009°05'4 7.0
2017-Oct-10 22:00N 38°42' W 009°09'613.0
2017-Oct-10 21:30N 38°42' W 009°00'612.2
2017-Oct-10 20:58N 38°42' W 009°09'613.9
2017-Oct-10 20:30N 38°42' W 009°00'612.9
2017-Oct-10 20:00N 38°42' W 009°09'612.8
2017-Oct-10 19:30N 38°42' W 009°00'612.8
2017-Oct-10 19:00N 38°42' W 009°09'612.4
2017-Oct-10 18:30N 38°42' W 009°01'612.7
2017-Oct-10 18:00N 38°42' W 009°09'612.8
2017-Oct-10 17:30N 38°42' W 009°00'613.0
2017-Oct-10 17:00N 38°42' W 009°09'613.2
2017-Oct-10 16:30N 38°42' W 009°00'612.5
2017-Oct-10 15:59N 38°42' W 009°09'613.4
2017-Oct-10 15:30N 38°42' W 009°00'4 8.6
2017-Oct-10 15:00N 38°41' W 009°06'2 2.0
2017-Oct-10 13:51N 38°41' W 009°09'0 0.0
2017-Oct-10 13:30N 38°41' W 009°09'0 0.0
2017-Oct-10 13:00N 38°41' W 009°09'0 0.0
2017-Oct-10 10:14N 38°41' W 009°09'1 5.5
2017-Oct-10 10:00N 38°42' W 009°09'613.0
2017-Oct-10 09:30N 38°42' W 009°00'612.9
2017-Oct-10 09:00N 38°42' W 009°09'612.5
2017-Oct-10 08:30N 38°42' W 009°01'612.8
2017-Oct-10 08:00N 38°42' W 009°09'612.9
2017-Oct-10 07:30N 38°42' W 009°00'612.6
2017-Oct-10 07:00N 38°42' W 009°09'613.2
2017-Oct-10 06:30N 38°42' W 009°00'0 0.1
2017-Oct-10 06:00N 38°42' W 009°00'0 0.0
2017-Oct-09 19:39N 38°42' W 009°00'0 1.9
2017-Oct-09 19:30N 38°42' W 009°01'612.4
2017-Oct-09 19:00N 38°42' W 009°09'612.4
2017-Oct-09 18:30N 38°42' W 009°01'612.7
2017-Oct-09 18:00N 38°42' W 009°09'613.0
2017-Oct-09 17:30N 38°42' W 009°00'612.9
2017-Oct-09 17:00N 38°42' W 009°09'613.0
2017-Oct-09 16:30N 38°42' W 009°00'612.9
2017-Oct-09 16:00N 38°42' W 009°09'612.8
2017-Oct-09 15:30N 38°42' W 009°00'0 0.2
2017-Oct-09 14:59N 38°42' W 009°00'6 1.2
2017-Oct-09 09:22N 38°41' W 009°09'1 2.2
2017-Oct-09 09:00N 38°42' W 009°08'1 2.8
2017-Oct-09 08:30N 38°40' W 009°08'2 4.3
2017-Oct-09 07:59N 38°39' W 009°06'4 8.7
2017-Oct-09 07:30N 38°42' W 009°09'2 4.3
2017-Oct-09 07:00N 38°40' W 009°07'2 3.6
2017-Oct-09 06:30N 38°39' W 009°06'4 7.8
2017-Oct-09 06:00N 38°42' W 009°09'4 8.2
2017-Oct-09 05:30N 38°39' W 009°06'  
Track history (hours):
 
Tides and Currents Weather Stations Pressure Air Temp Water Temp Dewpoint Dewpoint Depression Visibility Wind Speed Wind Dir Waves Ship Positions

Chiado

Last reported at 2017-Oct-19 05:30 UTC. Time now 2017-Oct-19 05:48 UTC.
Position N 38°39' W 009°06'.

Length 45 m; draft 24.8 m.

Type: Passenger vessel. MMSI: 263700010.

Date/timePositionNaut miles runAvg speedWind from/ knotsBaromVisibWave heightAir tempDewpointWater temp
2017-Oct-19 05:30N 38°39' W 009°06'0 0.1
2017-Oct-19 04:58N 38°39' W 009°06'0 0.0
2017-Oct-18 19:21N 38°39' W 009°06'411.1
2017-Oct-18 18:59N 38°42' W 009°09'4 8.5
2017-Oct-18 18:30N 38°39' W 009°06'4 7.7
2017-Oct-18 17:58N 38°42' W 009°09'3 5.4
2017-Oct-18 17:30N 38°40' W 009°07'1 1.2
2017-Oct-18 17:00N 38°40' W 009°06'3 6.2
2017-Oct-18 16:31N 38°42' W 009°09'3 5.1
2017-Oct-18 15:58N 38°40' W 009°07'1 2.4
2017-Oct-18 15:30N 38°41' W 009°08'1 2.8
2017-Oct-18 15:00N 38°42' W 009°09'4 3.9
2017-Oct-18 14:00N 38°39' W 009°06'4 8.2
2017-Oct-18 13:30N 38°42' W 009°09'4 8.2
2017-Oct-18 13:00N 38°39' W 009°06'0 0.0
2017-Oct-18 12:30N 38°39' W 009°06'4 8.1
2017-Oct-18 12:00N 38°42' W 009°09'4 8.2
2017-Oct-18 11:30N 38°39' W 009°06'0 0.0
2017-Oct-18 10:59N 38°39' W 009°06'4 8.5
2017-Oct-18 10:30N 38°42' W 009°09'1 2.3
2017-Oct-18 10:00N 38°41' W 009°09'0 0.0
2017-Oct-18 09:23N 38°41' W 009°09'1 3.0
2017-Oct-18 09:00N 38°42' W 009°09'3 5.2
2017-Oct-18 08:30N 38°40' W 009°07'1 1.9
2017-Oct-18 08:00N 38°40' W 009°06'3 6.9
2017-Oct-18 07:30N 38°42' W 009°09'2 4.6
2017-Oct-18 07:00N 38°40' W 009°07'1 2.3
2017-Oct-18 06:30N 38°40' W 009°06'3 6.8
2017-Oct-18 06:00N 38°42' W 009°09'4 8.3
2017-Oct-18 05:30N 38°39' W 009°06'0 0.1
2017-Oct-18 04:57N 38°39' W 009°06'0 0.0
2017-Oct-18 04:30N 38°39' W 009°06'0 0.0
2017-Oct-17 19:26N 38°39' W 009°06'4 6.5
2017-Oct-17 18:48N 38°42' W 009°09'412.1
2017-Oct-17 18:28N 38°39' W 009°06'4 8.2
2017-Oct-17 17:58N 38°42' W 009°09'3 6.1
2017-Oct-17 17:29N 38°40' W 009°07'0 0.7
2017-Oct-17 17:00N 38°40' W 009°07'3 4.8
2017-Oct-17 16:27N 38°42' W 009°09'3 7.0
2017-Oct-17 16:00N 38°40' W 009°06'2 3.7
2017-Oct-17 15:31N 38°41' W 009°08'0 0.8
2017-Oct-17 15:00N 38°41' W 009°08'3 6.2
2017-Oct-17 14:30N 38°39' W 009°06'0 0.0
2017-Oct-17 14:00N 38°39' W 009°06'4 7.6
2017-Oct-17 13:28N 38°42' W 009°09'4 8.8
2017-Oct-17 13:00N 38°39' W 009°06'0 0.0
2017-Oct-17 12:30N 38°39' W 009°06'4 7.7
2017-Oct-17 11:59N 38°42' W 009°09'4 8.6
2017-Oct-17 11:30N 38°39' W 009°06'0 0.0
2017-Oct-17 11:00N 38°39' W 009°06'4 8.2
2017-Oct-17 10:30N 38°42' W 009°09'4 8.2
2017-Oct-17 10:00N 38°39' W 009°06'0 0.0
2017-Oct-17 09:30N 38°39' W 009°06'4 8.3
2017-Oct-17 09:00N 38°42' W 009°09'2 4.9
2017-Oct-17 08:30N 38°40' W 009°07'1 2.3
2017-Oct-17 08:00N 38°40' W 009°06'3 6.7
2017-Oct-17 07:30N 38°42' W 009°09'2 4.9
2017-Oct-17 07:00N 38°40' W 009°07'1 2.0
2017-Oct-17 06:30N 38°40' W 009°06'3 6.6
2017-Oct-17 06:00N 38°42' W 009°09'4 8.3
2017-Oct-17 05:30N 38°39' W 009°06'0 0.1
2017-Oct-17 04:59N 38°39' W 009°06'0 0.0
2017-Oct-17 04:30N 38°39' W 009°06'0 0.0
2017-Oct-16 19:28N 38°39' W 009°06'4 9.0
2017-Oct-16 19:01N 38°42' W 009°09'4 8.1
2017-Oct-16 18:30N 38°39' W 009°06'4 8.3
2017-Oct-16 18:00N 38°42' W 009°09'3 4.8
2017-Oct-16 17:28N 38°40' W 009°07'0 0.5
2017-Oct-16 17:00N 38°40' W 009°07'3 5.3
2017-Oct-16 16:29N 38°42' W 009°09'3 5.4
2017-Oct-16 15:58N 38°40' W 009°07'1 1.3
2017-Oct-16 15:30N 38°40' W 009°07'2 4.0
2017-Oct-16 14:57N 38°42' W 009°09'1 0.2
2017-Oct-16 09:11N 38°41' W 009°09'1 5.2
2017-Oct-16 09:00N 38°42' W 009°08'510.3
2017-Oct-16 08:28N 38°42' W 009°01'511.6
2017-Oct-16 08:00N 38°42' W 009°08'611.7
2017-Oct-16 07:30N 38°42' W 009°00'612.5
2017-Oct-16 06:59N 38°42' W 009°09'612.9
2017-Oct-16 06:29N 38°42' W 009°00'  
2017-Oct-13 19:02N 38°42' W 009°00'0 0.0
2017-Oct-13 19:00N 38°42' W 009°00'612.9
2017-Oct-13 18:30N 38°42' W 009°09'612.9
2017-Oct-13 18:00N 38°42' W 009°00'613.0
2017-Oct-13 17:31N 38°42' W 009°09'612.8
2017-Oct-13 17:00N 38°42' W 009°00'612.8
2017-Oct-13 16:30N 38°42' W 009°09'613.2
2017-Oct-13 16:00N 38°42' W 009°00'612.3
2017-Oct-13 15:29N 38°42' W 009°09'613.5
2017-Oct-13 15:00N 38°42' W 009°00'612.9
2017-Oct-13 14:30N 38°42' W 009°09'612.9
2017-Oct-13 14:00N 38°42' W 009°00'0 0.2
2017-Oct-13 13:30N 38°42' W 009°01'611.8
2017-Oct-13 12:57N 38°42' W 009°09'614.0
2017-Oct-13 12:29N 38°42' W 009°00'0 0.0
2017-Oct-13 12:00N 38°42' W 009°00'613.0
2017-Oct-13 11:30N 38°42' W 009°09'612.7
2017-Oct-13 11:00N 38°42' W 009°00'0 0.0
2017-Oct-13 10:30N 38°42' W 009°00'610.7
2017-Oct-13 09:54N 38°42' W 009°09'1 2.8
2017-Oct-13 09:29N 38°41' W 009°09'1 2.3
2017-Oct-13 09:00N 38°42' W 009°08'5 9.1
2017-Oct-13 08:25N 38°41' W 009°02'511.8
2017-Oct-13 07:59N 38°42' W 009°08'5 8.7
2017-Oct-13 07:23N 38°41' W 009°02'512.5
2017-Oct-13 06:58N 38°42' W 009°08'6 0.5
2017-Oct-12 19:06N 38°42' W 009°00'0 0.4
2017-Oct-12 19:00N 38°42' W 009°00'613.1
2017-Oct-12 18:30N 38°42' W 009°09'612.9
2017-Oct-12 18:00N 38°42' W 009°00'613.1
2017-Oct-12 17:30N 38°42' W 009°09'612.8
2017-Oct-12 17:00N 38°42' W 009°00'612.4
2017-Oct-12 16:29N 38°42' W 009°09'612.9
2017-Oct-12 15:59N 38°42' W 009°00'613.7
2017-Oct-12 15:30N 38°42' W 009°09'612.8
2017-Oct-12 15:00N 38°42' W 009°00'612.6
2017-Oct-12 14:29N 38°42' W 009°09'612.3
2017-Oct-12 13:58N 38°42' W 009°00'0 0.0
2017-Oct-12 13:30N 38°42' W 009°00'612.6
2017-Oct-12 12:59N 38°42' W 009°09'613.6
2017-Oct-12 12:30N 38°42' W 009°00'1 1.9
2017-Oct-12 11:54N 38°41' W 009°02'612.6
2017-Oct-12 11:28N 38°42' W 009°09'613.8
2017-Oct-12 11:00N 38°42' W 009°00'0 0.0
2017-Oct-12 10:30N 38°42' W 009°00'610.5
2017-Oct-12 09:54N 38°42' W 009°09'0 0.0
2017-Oct-12 09:23N 38°42' W 009°09'1 2.9
2017-Oct-12 08:58N 38°41' W 009°09'1 2.5
2017-Oct-12 08:30N 38°42' W 009°09'612.9
2017-Oct-12 08:00N 38°42' W 009°00'613.0
2017-Oct-12 07:30N 38°42' W 009°09'612.4
2017-Oct-12 06:59N 38°42' W 009°00'612.8
2017-Oct-12 06:29N 38°42' W 009°09'612.6
2017-Oct-12 05:59N 38°42' W 009°00'613.6
2017-Oct-12 05:30N 38°42' W 009°09'612.9
2017-Oct-12 05:00N 38°42' W 009°00'0 0.0
2017-Oct-12 04:30N 38°42' W 009°00'0 0.0
2017-Oct-11 22:57N 38°42' W 009°00'5 8.9
2017-Oct-11 22:26N 38°41' W 009°06'2 5.5
2017-Oct-11 22:00N 38°42' W 009°09'612.5
2017-Oct-11 21:30N 38°42' W 009°01'612.9
2017-Oct-11 21:00N 38°42' W 009°09'612.9
2017-Oct-11 20:30N 38°42' W 009°00'612.9
2017-Oct-11 20:01N 38°42' W 009°09'612.4
2017-Oct-11 19:30N 38°42' W 009°01'612.3
2017-Oct-11 19:00N 38°42' W 009°09'611.3
2017-Oct-11 18:28N 38°42' W 009°01'613.2
2017-Oct-11 18:01N 38°42' W 009°09'612.6
2017-Oct-11 17:30N 38°42' W 009°00'613.1
2017-Oct-11 17:00N 38°42' W 009°09'6 0.4
2017-Oct-10 22:48N 38°42' W 009°00'311.5
2017-Oct-10 22:30N 38°41' W 009°05'4 7.0
2017-Oct-10 22:00N 38°42' W 009°09'613.0
2017-Oct-10 21:30N 38°42' W 009°00'612.2
2017-Oct-10 20:58N 38°42' W 009°09'613.9
2017-Oct-10 20:30N 38°42' W 009°00'612.9
2017-Oct-10 20:00N 38°42' W 009°09'612.8
2017-Oct-10 19:30N 38°42' W 009°00'612.8
2017-Oct-10 19:00N 38°42' W 009°09'612.4
2017-Oct-10 18:30N 38°42' W 009°01'612.7
2017-Oct-10 18:00N 38°42' W 009°09'612.8
2017-Oct-10 17:30N 38°42' W 009°00'613.0
2017-Oct-10 17:00N 38°42' W 009°09'613.2
2017-Oct-10 16:30N 38°42' W 009°00'612.5
2017-Oct-10 15:59N 38°42' W 009°09'613.4
2017-Oct-10 15:30N 38°42' W 009°00'4 8.6
2017-Oct-10 15:00N 38°41' W 009°06'2 2.0
2017-Oct-10 13:51N 38°41' W 009°09'0 0.0
2017-Oct-10 13:30N 38°41' W 009°09'0 0.0
2017-Oct-10 13:00N 38°41' W 009°09'0 0.0
2017-Oct-10 10:14N 38°41' W 009°09'1 5.5
2017-Oct-10 10:00N 38°42' W 009°09'613.0
2017-Oct-10 09:30N 38°42' W 009°00'612.9
2017-Oct-10 09:00N 38°42' W 009°09'612.5
2017-Oct-10 08:30N 38°42' W 009°01'612.8
2017-Oct-10 08:00N 38°42' W 009°09'612.9
2017-Oct-10 07:30N 38°42' W 009°00'612.6
2017-Oct-10 07:00N 38°42' W 009°09'613.2
2017-Oct-10 06:30N 38°42' W 009°00'0 0.1
2017-Oct-10 06:00N 38°42' W 009°00'0 0.0
2017-Oct-09 19:39N 38°42' W 009°00'0 1.9
2017-Oct-09 19:30N 38°42' W 009°01'612.4
2017-Oct-09 19:00N 38°42' W 009°09'612.4
2017-Oct-09 18:30N 38°42' W 009°01'612.7
2017-Oct-09 18:00N 38°42' W 009°09'613.0
2017-Oct-09 17:30N 38°42' W 009°00'612.9
2017-Oct-09 17:00N 38°42' W 009°09'613.0
2017-Oct-09 16:30N 38°42' W 009°00'612.9
2017-Oct-09 16:00N 38°42' W 009°09'612.8
2017-Oct-09 15:30N 38°42' W 009°00'0 0.2
2017-Oct-09 14:59N 38°42' W 009°00'6 1.2
2017-Oct-09 09:22N 38°41' W 009°09'1 2.2
2017-Oct-09 09:00N 38°42' W 009°08'1 2.8
2017-Oct-09 08:30N 38°40' W 009°08'2 4.3
2017-Oct-09 07:59N 38°39' W 009°06'4 8.7
2017-Oct-09 07:30N 38°42' W 009°09'2 4.3
2017-Oct-09 07:00N 38°40' W 009°07'2 3.6
2017-Oct-09 06:30N 38°39' W 009°06'4 7.8
2017-Oct-09 06:00N 38°42' W 009°09'4 8.2
2017-Oct-09 05:30N 38°39' W 009°06'  

Dump ship's entire track history